Terminal Aerodrome Forecast
Issued by NWS Cleveland, OH

Home | Current Version | Previous Version | Text Only | Print | Product List | Glossary On
Versions: 1 2 3 4 5 6 7 8 9 10 11 12 13 14 15 16 17 18 19 20 21 22 23
000
FTUS41 KCLE 251459 AAC
TAFMFD
TAF AMD
KMFD 251459Z 2515/2612 25007KT P6SM VCSH SCT025 BKN250
      TEMPO 2515/2517 BKN025
     FM251800 26009KT P6SM VCSH SCT035 BKN100
     FM260000 26005KT P6SM SKC
      TEMPO 2609/2612 5SM BR=

USA.gov is the U.S. government's official web portal to all federal, state and local government web resources and services.